PWSweather.com
Personal Weather Stations
Station Observations
IGLOUCES43
GloucesterGB GL2 4YT

GloucesterGB GL2 4YT

Lat: 51.8239925, Lon: -2.2837441000000354

Elevation: 57

Station Type: Davis Vantage Pro2

Latest ConditionsUpdated 4:00:00 PM GMT Thursday, Jun 21, 2018
Currently Today's Max Today's Min Today's Average
Temperature 69.2°F20.7°C 70.4°F21.3°C 48.7°F9.3°C 58.8°F14.9°C
Dew Point 41.1°F5.1°C 46.7°F8.2°C 40.5°F4.7°C 43.6°F6.4°C
Winds 5.9 mph NNW9.5 kmh NNW 8.3 mph -13.4 kmh - - 4.0 mph 6.4 kmh
Wind Gusts 12.0 mph19.3 kmh 20.0 mph32.2 kmh - -
Humidity 36% 83% 36% 59%
Pressure 30.40 in1029.5 mb 30.41 in1029.8 mb 30.22 in1023.4 mb -
Hour Temp Dew Point Humidity Winds Wind Gusts Pressure Precip Precip Rate Daily Precip Total
04:00 PM 69.2°F20.7°C 41.1°F5.1°C 36% 5.9 mph NNW9.5 kmh NNW 12.0 mph19.3 kmh 30.40 in1029.5 mb 0.00 in0.0 mm 0.00 in0.0 mm 0.00 in0.0 mm
03:55 PM 69.9°F21.1°C 41.7°F5.4°C 36% 5.9 mph NNW9.5 kmh NNW 12.0 mph19.3 kmh 30.41 in1029.8 mb 0.00 in0.0 mm 0.00 in0.0 mm 0.00 in0.0 mm
03:50 PM 69.4°F20.8°C 41.3°F5.2°C 36% 5.9 mph N9.5 kmh N 11.0 mph17.7 kmh 30.40 in1029.5 mb 0.00 in0.0 mm 0.00 in0.0 mm 0.00 in0.0 mm
03:45 PM 69.6°F20.9°C 41.5°F5.3°C 36% 5.9 mph N9.5 kmh N 15.0 mph24.1 kmh 30.40 in1029.5 mb 0.00 in0.0 mm 0.00 in0.0 mm 0.00 in0.0 mm
03:40 PM 70.0°F21.1°C 43.2°F6.2°C 38% 5.9 mph N9.5 kmh N 15.0 mph24.1 kmh 30.40 in1029.5 mb 0.00 in0.0 mm 0.00 in0.0 mm 0.00 in0.0 mm
03:35 PM 70.4°F21.3°C 42.2°F5.7°C 36% 4.7 mph N7.6 kmh N 10.0 mph16.1 kmh 30.40 in1029.5 mb 0.00 in0.0 mm 0.00 in0.0 mm 0.00 in0.0 mm
03:30 PM 70.3°F21.3°C 44.2°F6.8°C 39% 4.7 mph N7.6 kmh N 10.0 mph16.1 kmh 30.40 in1029.5 mb 0.00 in0.0 mm 0.00 in0.0 mm 0.00 in0.0 mm
03:25 PM 69.7°F20.9°C 42.3°F5.7°C 37% 4.7 mph N7.6 kmh N 10.0 mph16.1 kmh 30.40 in1029.5 mb 0.00 in0.0 mm 0.00 in0.0 mm 0.00 in0.0 mm
03:20 PM 69.2°F20.7°C 42.5°F5.8°C 38% 4.7 mph NW7.6 kmh NW 9.0 mph14.5 kmh 30.40 in1029.5 mb 0.00 in0.0 mm 0.00 in0.0 mm 0.00 in0.0 mm
03:15 PM 68.7°F20.4°C 41.4°F5.2°C 37% 4.7 mph NW7.6 kmh NW 10.0 mph16.1 kmh 30.40 in1029.5 mb 0.00 in0.0 mm 0.00 in0.0 mm 0.00 in0.0 mm
03:10 PM 69.1°F20.6°C 43.1°F6.2°C 39% 4.7 mph NNW7.6 kmh NNW 10.0 mph16.1 kmh 30.39 in1029.1 mb 0.00 in0.0 mm 0.00 in0.0 mm 0.00 in0.0 mm
03:05 PM 69.0°F20.6°C 42.3°F5.7°C 38% 5.9 mph N9.5 kmh N 12.0 mph19.3 kmh 30.39 in1029.1 mb 0.00 in0.0 mm 0.00 in0.0 mm 0.00 in0.0 mm
03:00 PM 68.5°F20.3°C 41.9°F5.5°C 38% 7.1 mph NNW11.4 kmh NNW 14.0 mph22.5 kmh 30.40 in1029.5 mb 0.00 in0.0 mm 0.00 in0.0 mm 0.00 in0.0 mm
02:55 PM 68.4°F20.2°C 43.1°F6.2°C 40% 5.9 mph NW9.5 kmh NW 14.0 mph22.5 kmh 30.39 in1029.1 mb 0.00 in0.0 mm 0.00 in0.0 mm 0.00 in0.0 mm
02:50 PM 68.4°F20.2°C 43.1°F6.2°C 40% 5.9 mph NW9.5 kmh NW 12.0 mph19.3 kmh 30.39 in1029.1 mb 0.00 in0.0 mm 0.00 in0.0 mm 0.00 in0.0 mm
02:45 PM 67.3°F19.6°C 42.1°F5.6°C 40% 7.1 mph NW11.4 kmh NW 16.0 mph25.7 kmh 30.39 in1029.1 mb 0.00 in0.0 mm 0.00 in0.0 mm 0.00 in0.0 mm
02:40 PM 67.0°F19.4°C 40.5°F4.7°C 38% 7.1 mph NW11.4 kmh NW 16.0 mph25.7 kmh 30.39 in1029.1 mb 0.00 in0.0 mm 0.00 in0.0 mm 0.00 in0.0 mm
02:35 PM 67.8°F19.9°C 41.9°F5.5°C 39% 5.9 mph NW9.5 kmh NW 18.0 mph29.0 kmh 30.39 in1029.1 mb 0.00 in0.0 mm 0.00 in0.0 mm 0.00 in0.0 mm
02:30 PM 68.3°F20.2°C 43.0°F6.1°C 40% 5.9 mph NW9.5 kmh NW 18.0 mph29.0 kmh 30.39 in1029.1 mb 0.00 in0.0 mm 0.00 in0.0 mm 0.00 in0.0 mm
02:25 PM 68.4°F20.2°C 41.8°F5.4°C 38% 5.9 mph NW9.5 kmh NW 13.0 mph20.9 kmh 30.39 in1029.1 mb 0.00 in0.0 mm 0.00 in0.0 mm 0.00 in0.0 mm
02:20 PM 68.4°F20.2°C 43.1°F6.2°C 40% 5.9 mph NW9.5 kmh NW 13.0 mph20.9 kmh 30.39 in1029.1 mb 0.00 in0.0 mm 0.00 in0.0 mm 0.00 in0.0 mm
02:15 PM 68.7°F20.4°C 42.7°F5.9°C 39% 4.7 mph NW7.6 kmh NW 12.0 mph19.3 kmh 30.38 in1028.8 mb 0.00 in0.0 mm 0.00 in0.0 mm 0.00 in0.0 mm
02:10 PM 68.4°F20.2°C 42.5°F5.8°C 39% 4.7 mph NW7.6 kmh NW 11.0 mph17.7 kmh 30.39 in1029.1 mb 0.00 in0.0 mm 0.00 in0.0 mm 0.00 in0.0 mm
02:05 PM 67.7°F19.8°C 41.8°F5.4°C 39% 4.7 mph NW7.6 kmh NW 11.0 mph17.7 kmh 30.38 in1028.8 mb 0.00 in0.0 mm 0.00 in0.0 mm 0.00 in0.0 mm
02:00 PM 67.4°F19.7°C 42.9°F6.1°C 41% 5.9 mph NW9.5 kmh NW 11.0 mph17.7 kmh 30.38 in1028.8 mb 0.00 in0.0 mm 0.00 in0.0 mm 0.00 in0.0 mm
01:55 PM 67.5°F19.7°C 41.7°F5.4°C 39% 5.9 mph NNW9.5 kmh NNW 11.0 mph17.7 kmh 30.38 in1028.8 mb 0.00 in0.0 mm 0.00 in0.0 mm 0.00 in0.0 mm
01:50 PM 68.5°F20.3°C 42.6°F5.9°C 39% 4.7 mph NNW7.6 kmh NNW 11.0 mph17.7 kmh 30.38 in1028.8 mb 0.00 in0.0 mm 0.00 in0.0 mm 0.00 in0.0 mm
01:45 PM 68.5°F20.3°C 42.6°F5.9°C 39% 5.9 mph NW9.5 kmh NW 17.0 mph27.4 kmh 30.38 in1028.8 mb 0.00 in0.0 mm 0.00 in0.0 mm 0.00 in0.0 mm
01:40 PM 68.0°F20.0°C 44.0°F6.7°C 42% 7.1 mph NW11.4 kmh NW 17.0 mph27.4 kmh 30.38 in1028.8 mb 0.00 in0.0 mm 0.00 in0.0 mm 0.00 in0.0 mm
01:35 PM 68.5°F20.3°C 43.9°F6.6°C 41% 5.9 mph NNW9.5 kmh NNW 14.0 mph22.5 kmh 30.38 in1028.8 mb 0.00 in0.0 mm 0.00 in0.0 mm 0.00 in0.0 mm
01:30 PM 67.6°F19.8°C 43.1°F6.2°C 41% 5.9 mph NNW9.5 kmh NNW 14.0 mph22.5 kmh 30.38 in1028.8 mb 0.00 in0.0 mm 0.00 in0.0 mm 0.00 in0.0 mm
01:25 PM 67.5°F19.7°C 42.3°F5.7°C 40% 5.9 mph NW9.5 kmh NW 18.0 mph29.0 kmh 30.38 in1028.8 mb 0.00 in0.0 mm 0.00 in0.0 mm 0.00 in0.0 mm
01:20 PM 67.1°F19.5°C 42.6°F5.9°C 41% 7.1 mph NNW11.4 kmh NNW 18.0 mph29.0 kmh 30.38 in1028.8 mb 0.00 in0.0 mm 0.00 in0.0 mm 0.00 in0.0 mm
01:15 PM 67.2°F19.6°C 42.7°F5.9°C 41% 7.1 mph N11.4 kmh N 14.0 mph22.5 kmh 30.38 in1028.8 mb 0.00 in0.0 mm 0.00 in0.0 mm 0.00 in0.0 mm
01:10 PM 66.5°F19.2°C 42.1°F5.6°C 41% 5.9 mph NNW9.5 kmh NNW 12.0 mph19.3 kmh 30.38 in1028.8 mb 0.00 in0.0 mm 0.00 in0.0 mm 0.00 in0.0 mm
01:05 PM 66.2°F19.0°C 42.4°F5.8°C 42% 5.9 mph NW9.5 kmh NW 12.0 mph19.3 kmh 30.38 in1028.8 mb 0.00 in0.0 mm 0.00 in0.0 mm 0.00 in0.0 mm
01:00 PM 66.2°F19.0°C 43.0°F6.1°C 43% 5.9 mph NNW9.5 kmh NNW 13.0 mph20.9 kmh 30.38 in1028.8 mb 0.00 in0.0 mm 0.00 in0.0 mm 0.00 in0.0 mm
12:55 PM 66.9°F19.4°C 43.0°F6.1°C 42% 4.7 mph N7.6 kmh N 13.0 mph20.9 kmh 30.38 in1028.8 mb 0.00 in0.0 mm 0.00 in0.0 mm 0.00 in0.0 mm
12:50 PM 67.1°F19.5°C 42.6°F5.9°C 41% 4.7 mph NW7.6 kmh NW 12.0 mph19.3 kmh 30.38 in1028.8 mb 0.00 in0.0 mm 0.00 in0.0 mm 0.00 in0.0 mm
12:45 PM 66.1°F18.9°C 42.9°F6.1°C 43% 5.9 mph NNW9.5 kmh NNW 13.0 mph20.9 kmh 30.38 in1028.8 mb 0.00 in0.0 mm 0.00 in0.0 mm 0.00 in0.0 mm
12:40 PM 66.5°F19.2°C 42.7°F5.9°C 42% 7.1 mph NNW11.4 kmh NNW 14.0 mph22.5 kmh 30.38 in1028.8 mb 0.00 in0.0 mm 0.00 in0.0 mm 0.00 in0.0 mm
12:35 PM 66.9°F19.4°C 42.4°F5.8°C 41% 7.1 mph NW11.4 kmh NW 14.0 mph22.5 kmh 30.38 in1028.8 mb 0.00 in0.0 mm 0.00 in0.0 mm 0.00 in0.0 mm
12:30 PM 66.9°F19.4°C 43.0°F6.1°C 42% 5.9 mph NNW9.5 kmh NNW 13.0 mph20.9 kmh 30.38 in1028.8 mb 0.00 in0.0 mm 0.00 in0.0 mm 0.00 in0.0 mm
12:25 PM 66.1°F18.9°C 42.9°F6.1°C 43% 5.9 mph NNW9.5 kmh NNW 13.0 mph20.9 kmh 30.38 in1028.8 mb 0.00 in0.0 mm 0.00 in0.0 mm 0.00 in0.0 mm
12:20 PM 64.9°F18.3°C 43.0°F6.1°C 45% 7.1 mph NW11.4 kmh NW 18.0 mph29.0 kmh 30.38 in1028.8 mb 0.00 in0.0 mm 0.00 in0.0 mm 0.00 in0.0 mm
12:15 PM 65.3°F18.5°C 42.8°F6.0°C 44% 7.1 mph NW11.4 kmh NW 18.0 mph29.0 kmh 30.38 in1028.8 mb 0.00 in0.0 mm 0.00 in0.0 mm 0.00 in0.0 mm
12:10 PM 66.1°F18.9°C 42.9°F6.1°C 43% 5.9 mph NW9.5 kmh NW 13.0 mph20.9 kmh 30.37 in1028.4 mb 0.00 in0.0 mm 0.00 in0.0 mm 0.00 in0.0 mm
12:05 PM 66.5°F19.2°C 42.1°F5.6°C 41% 5.9 mph NNW9.5 kmh NNW 13.0 mph20.9 kmh 30.38 in1028.8 mb 0.00 in0.0 mm 0.00 in0.0 mm 0.00 in0.0 mm
12:00 PM 66.1°F18.9°C 42.9°F6.1°C 43% 5.9 mph NNW9.5 kmh NNW 14.0 mph22.5 kmh 30.37 in1028.4 mb 0.00 in0.0 mm 0.00 in0.0 mm 0.00 in0.0 mm
11:55 AM 65.9°F18.8°C 43.4°F6.3°C 44% 5.9 mph NW9.5 kmh NW 14.0 mph22.5 kmh 30.37 in1028.4 mb 0.00 in0.0 mm 0.00 in0.0 mm 0.00 in0.0 mm
11:50 AM 65.4°F18.6°C 42.9°F6.1°C 44% 5.9 mph NW9.5 kmh NW 14.0 mph22.5 kmh 30.37 in1028.4 mb 0.00 in0.0 mm 0.00 in0.0 mm 0.00 in0.0 mm
11:45 AM 65.4°F18.6°C 42.3°F5.7°C 43% 7.1 mph NW11.4 kmh NW 14.0 mph22.5 kmh 30.37 in1028.4 mb 0.00 in0.0 mm 0.00 in0.0 mm 0.00 in0.0 mm
11:40 AM 65.8°F18.8°C 42.7°F5.9°C 43% 7.1 mph NNW11.4 kmh NNW 13.0 mph20.9 kmh 30.37 in1028.4 mb 0.00 in0.0 mm 0.00 in0.0 mm 0.00 in0.0 mm
11:35 AM 65.4°F18.6°C 41.7°F5.4°C 42% 7.1 mph N11.4 kmh N 13.0 mph20.9 kmh 30.37 in1028.4 mb 0.00 in0.0 mm 0.00 in0.0 mm 0.00 in0.0 mm
11:30 AM 64.9°F18.3°C 41.9°F5.5°C 43% 7.1 mph NW11.4 kmh NW 19.0 mph30.6 kmh 30.37 in1028.4 mb 0.00 in0.0 mm 0.00 in0.0 mm 0.00 in0.0 mm
11:25 AM 64.4°F18.0°C 42.6°F5.9°C 45% 7.1 mph NW11.4 kmh NW 19.0 mph30.6 kmh 30.36 in1028.1 mb 0.00 in0.0 mm 0.00 in0.0 mm 0.00 in0.0 mm
11:20 AM 64.5°F18.1°C 42.1°F5.6°C 44% 5.9 mph NW9.5 kmh NW 13.0 mph20.9 kmh 30.36 in1028.1 mb 0.00 in0.0 mm 0.00 in0.0 mm 0.00 in0.0 mm
11:15 AM 65.1°F18.4°C 42.0°F5.6°C 43% 5.9 mph NW9.5 kmh NW 14.0 mph22.5 kmh 30.37 in1028.4 mb 0.00 in0.0 mm 0.00 in0.0 mm 0.00 in0.0 mm
11:10 AM 64.7°F18.2°C 41.7°F5.4°C 43% 5.9 mph NNW9.5 kmh NNW 14.0 mph22.5 kmh 30.37 in1028.4 mb 0.00 in0.0 mm 0.00 in0.0 mm 0.00 in0.0 mm
11:00 AM 63.3°F17.4°C 41.6°F5.3°C 45% 7.1 mph NW11.4 kmh NW 14.0 mph22.5 kmh 30.36 in1028.1 mb 0.00 in0.0 mm 0.00 in0.0 mm 0.00 in0.0 mm
10:55 AM 63.2°F17.3°C 43.2°F6.2°C 48% 5.9 mph NW9.5 kmh NW 14.0 mph22.5 kmh 30.36 in1028.1 mb 0.00 in0.0 mm 0.00 in0.0 mm 0.00 in0.0 mm
10:50 AM 62.9°F17.2°C 42.9°F6.1°C 48% 5.9 mph NW9.5 kmh NW 13.0 mph20.9 kmh 30.36 in1028.1 mb 0.00 in0.0 mm 0.00 in0.0 mm 0.00 in0.0 mm
10:45 AM 63.1°F17.3°C 43.1°F6.2°C 48% 5.9 mph NW9.5 kmh NW 13.0 mph20.9 kmh 30.36 in1028.1 mb 0.00 in0.0 mm 0.00 in0.0 mm 0.00 in0.0 mm
10:40 AM 63.0°F17.2°C 43.5°F6.4°C 49% 4.7 mph NNW7.6 kmh NNW 11.0 mph17.7 kmh 30.36 in1028.1 mb 0.00 in0.0 mm 0.00 in0.0 mm 0.00 in0.0 mm
10:35 AM 62.2°F16.8°C 43.8°F6.6°C 51% 4.7 mph NW7.6 kmh NW 14.0 mph22.5 kmh 30.36 in1028.1 mb 0.00 in0.0 mm 0.00 in0.0 mm 0.00 in0.0 mm
10:30 AM 60.7°F15.9°C 43.5°F6.4°C 53% 5.9 mph NW9.5 kmh NW 14.0 mph22.5 kmh 30.36 in1028.1 mb 0.00 in0.0 mm 0.00 in0.0 mm 0.00 in0.0 mm
10:25 AM 60.4°F15.8°C 42.7°F5.9°C 52% 5.9 mph NW9.5 kmh NW 14.0 mph22.5 kmh 30.36 in1028.1 mb 0.00 in0.0 mm 0.00 in0.0 mm 0.00 in0.0 mm
10:20 AM 60.9°F16.1°C 43.1°F6.2°C 52% 7.1 mph NW11.4 kmh NW 16.0 mph25.7 kmh 30.36 in1028.1 mb 0.00 in0.0 mm 0.00 in0.0 mm 0.00 in0.0 mm
10:15 AM 62.0°F16.7°C 42.6°F5.9°C 49% 7.1 mph NW11.4 kmh NW 16.0 mph25.7 kmh 30.35 in1027.8 mb 0.00 in0.0 mm 0.00 in0.0 mm 0.00 in0.0 mm
10:10 AM 63.1°F17.3°C 43.1°F6.2°C 48% 5.9 mph NNW9.5 kmh NNW 13.0 mph20.9 kmh 30.36 in1028.1 mb 0.00 in0.0 mm 0.00 in0.0 mm 0.00 in0.0 mm
10:05 AM 62.8°F17.1°C 42.8°F6.0°C 48% 5.9 mph NNW9.5 kmh NNW 13.0 mph20.9 kmh 30.36 in1028.1 mb 0.00 in0.0 mm 0.00 in0.0 mm 0.00 in0.0 mm
10:00 AM 62.4°F16.9°C 43.5°F6.4°C 50% 5.9 mph NNW9.5 kmh NNW 12.0 mph19.3 kmh 30.36 in1028.1 mb 0.00 in0.0 mm 0.00 in0.0 mm 0.00 in0.0 mm
09:55 AM 61.4°F16.3°C 43.1°F6.2°C 51% 7.1 mph NW11.4 kmh NW 14.0 mph22.5 kmh 30.36 in1028.1 mb 0.00 in0.0 mm 0.00 in0.0 mm 0.00 in0.0 mm
09:50 AM 61.0°F16.1°C 41.7°F5.4°C 49% 8.3 mph NW13.4 kmh NW 18.0 mph29.0 kmh 30.35 in1027.8 mb 0.00 in0.0 mm 0.00 in0.0 mm 0.00 in0.0 mm
09:45 AM 61.0°F16.1°C 42.2°F5.7°C 50% 8.3 mph NW13.4 kmh NW 18.0 mph29.0 kmh 30.35 in1027.8 mb 0.00 in0.0 mm 0.00 in0.0 mm 0.00 in0.0 mm
09:40 AM 60.5°F15.8°C 43.3°F6.3°C 53% 8.3 mph NW13.4 kmh NW 16.0 mph25.7 kmh 30.35 in1027.8 mb 0.00 in0.0 mm 0.00 in0.0 mm 0.00 in0.0 mm
09:35 AM 60.4°F15.8°C 42.7°F5.9°C 52% 7.1 mph NW11.4 kmh NW 20.0 mph32.2 kmh 30.35 in1027.8 mb 0.00 in0.0 mm 0.00 in0.0 mm 0.00 in0.0 mm
09:30 AM 60.6°F15.9°C 42.4°F5.8°C 51% 8.3 mph NW13.4 kmh NW 20.0 mph32.2 kmh 30.35 in1027.8 mb 0.00 in0.0 mm 0.00 in0.0 mm 0.00 in0.0 mm
09:25 AM 60.3°F15.7°C 43.1°F6.2°C 53% 8.3 mph NW13.4 kmh NW 18.0 mph29.0 kmh 30.35 in1027.8 mb 0.00 in0.0 mm 0.00 in0.0 mm 0.00 in0.0 mm
09:20 AM 59.9°F15.5°C 42.2°F5.7°C 52% 8.3 mph NW13.4 kmh NW 18.0 mph29.0 kmh 30.35 in1027.8 mb 0.00 in0.0 mm 0.00 in0.0 mm 0.00 in0.0 mm
09:15 AM 59.9°F15.5°C 42.7°F5.9°C 53% 8.3 mph NW13.4 kmh NW 17.0 mph27.4 kmh 30.35 in1027.8 mb 0.00 in0.0 mm 0.00 in0.0 mm 0.00 in0.0 mm
09:10 AM 60.7°F15.9°C 43.0°F6.1°C 52% 7.1 mph NW11.4 kmh NW 17.0 mph27.4 kmh 30.35 in1027.8 mb 0.00 in0.0 mm 0.00 in0.0 mm 0.00 in0.0 mm
09:05 AM 61.1°F16.2°C 42.8°F6.0°C 51% 5.9 mph NW9.5 kmh NW 15.0 mph24.1 kmh 30.35 in1027.8 mb 0.00 in0.0 mm 0.00 in0.0 mm 0.00 in0.0 mm
09:00 AM 61.5°F16.4°C 43.2°F6.2°C 51% 5.9 mph NNW9.5 kmh NNW 14.0 mph22.5 kmh 30.34 in1027.4 mb 0.00 in0.0 mm 0.00 in0.0 mm 0.00 in0.0 mm
08:55 AM 61.4°F16.3°C 42.6°F5.9°C 50% 4.7 mph N7.6 kmh N 14.0 mph22.5 kmh 30.34 in1027.4 mb 0.00 in0.0 mm 0.00 in0.0 mm 0.00 in0.0 mm
08:50 AM 60.9°F16.1°C 43.6°F6.4°C 53% 5.9 mph N9.5 kmh N 15.0 mph24.1 kmh 30.34 in1027.4 mb 0.00 in0.0 mm 0.00 in0.0 mm 0.00 in0.0 mm
08:45 AM 60.9°F16.1°C 42.1°F5.6°C 50% 8.3 mph N13.4 kmh N 16.0 mph25.7 kmh 30.34 in1027.4 mb 0.00 in0.0 mm 0.00 in0.0 mm 0.00 in0.0 mm
08:40 AM 61.2°F16.2°C 42.9°F6.1°C 51% 5.9 mph NNW9.5 kmh NNW 16.0 mph25.7 kmh 30.34 in1027.4 mb 0.00 in0.0 mm 0.00 in0.0 mm 0.00 in0.0 mm
08:35 AM 60.9°F16.1°C 43.1°F6.2°C 52% 4.7 mph NW7.6 kmh NW 12.0 mph19.3 kmh 30.34 in1027.4 mb 0.00 in0.0 mm 0.00 in0.0 mm 0.00 in0.0 mm
08:30 AM 61.1°F16.2°C 43.8°F6.6°C 53% 3.5 mph NNW5.6 kmh NNW 12.0 mph19.3 kmh 30.34 in1027.4 mb 0.00 in0.0 mm 0.00 in0.0 mm 0.00 in0.0 mm
08:25 AM 60.5°F15.8°C 43.3°F6.3°C 53% 3.5 mph N5.6 kmh N 12.0 mph19.3 kmh 30.34 in1027.4 mb 0.00 in0.0 mm 0.00 in0.0 mm 0.00 in0.0 mm
08:20 AM 59.6°F15.3°C 42.9°F6.1°C 54% 4.7 mph NNW7.6 kmh NNW 12.0 mph19.3 kmh 30.34 in1027.4 mb 0.00 in0.0 mm 0.00 in0.0 mm 0.00 in0.0 mm
08:15 AM 58.6°F14.8°C 42.9°F6.1°C 56% 4.7 mph NNW7.6 kmh NNW 18.0 mph29.0 kmh 30.34 in1027.4 mb 0.00 in0.0 mm 0.00 in0.0 mm 0.00 in0.0 mm
08:10 AM 57.7°F14.3°C 42.6°F5.9°C 57% 4.7 mph NW7.6 kmh NW 18.0 mph29.0 kmh 30.34 in1027.4 mb 0.00 in0.0 mm 0.00 in0.0 mm 0.00 in0.0 mm
08:05 AM 57.0°F13.9°C 43.2°F6.2°C 60% 4.7 mph NW7.6 kmh NW 12.0 mph19.3 kmh 30.34 in1027.4 mb 0.00 in0.0 mm 0.00 in0.0 mm 0.00 in0.0 mm
08:00 AM 56.7°F13.7°C 42.1°F5.6°C 58% 4.7 mph NW7.6 kmh NW 11.0 mph17.7 kmh 30.34 in1027.4 mb 0.00 in0.0 mm 0.00 in0.0 mm 0.00 in0.0 mm
07:55 AM 57.0°F13.9°C 42.8°F6.0°C 59% 4.7 mph NW7.6 kmh NW 10.0 mph16.1 kmh 30.34 in1027.4 mb 0.00 in0.0 mm 0.00 in0.0 mm 0.00 in0.0 mm
07:50 AM 57.5°F14.2°C 43.3°F6.3°C 59% 3.5 mph NNW5.6 kmh NNW 13.0 mph20.9 kmh 30.34 in1027.4 mb 0.00 in0.0 mm 0.00 in0.0 mm 0.00 in0.0 mm
07:45 AM 57.6°F14.2°C 42.9°F6.1°C 58% 5.9 mph N9.5 kmh N 15.0 mph24.1 kmh 30.33 in1027.1 mb 0.00 in0.0 mm 0.00 in0.0 mm 0.00 in0.0 mm
07:40 AM 56.8°F13.8°C 42.6°F5.9°C 59% 5.9 mph NNW9.5 kmh NNW 16.0 mph25.7 kmh 30.33 in1027.1 mb 0.00 in0.0 mm 0.00 in0.0 mm 0.00 in0.0 mm
07:35 AM 56.0°F13.3°C 42.3°F5.7°C 60% 7.1 mph NW11.4 kmh NW 16.0 mph25.7 kmh 30.34 in1027.4 mb 0.00 in0.0 mm 0.00 in0.0 mm 0.00 in0.0 mm
07:30 AM 56.2°F13.4°C 42.5°F5.8°C 60% 5.9 mph NW9.5 kmh NW 14.0 mph22.5 kmh 30.33 in1027.1 mb 0.00 in0.0 mm 0.00 in0.0 mm 0.00 in0.0 mm
07:25 AM 56.6°F13.7°C 42.9°F6.1°C 60% 5.9 mph NW9.5 kmh NW 13.0 mph20.9 kmh 30.33 in1027.1 mb 0.00 in0.0 mm 0.00 in0.0 mm 0.00 in0.0 mm
07:20 AM 56.9°F13.8°C 43.2°F6.2°C 60% 4.7 mph NW7.6 kmh NW 11.0 mph17.7 kmh 30.33 in1027.1 mb 0.00 in0.0 mm 0.00 in0.0 mm 0.00 in0.0 mm
07:15 AM 56.9°F13.8°C 43.2°F6.2°C 60% 5.9 mph NW9.5 kmh NW 17.0 mph27.4 kmh 30.33 in1027.1 mb 0.00 in0.0 mm 0.00 in0.0 mm 0.00 in0.0 mm
07:10 AM 56.7°F13.7°C 43.0°F6.1°C 60% 5.9 mph NW9.5 kmh NW 17.0 mph27.4 kmh 30.33 in1027.1 mb 0.00 in0.0 mm 0.00 in0.0 mm 0.00 in0.0 mm
07:05 AM 57.1°F13.9°C 43.8°F6.6°C 61% 4.7 mph NW7.6 kmh NW 14.0 mph22.5 kmh 30.33 in1027.1 mb 0.00 in0.0 mm 0.00 in0.0 mm 0.00 in0.0 mm
07:00 AM 56.8°F13.8°C 43.5°F6.4°C 61% 4.7 mph NW7.6 kmh NW 16.0 mph25.7 kmh 30.33 in1027.1 mb 0.00 in0.0 mm 0.00 in0.0 mm 0.00 in0.0 mm
06:55 AM 57.3°F14.1°C 43.1°F6.2°C 59% 3.5 mph NW5.6 kmh NW 16.0 mph25.7 kmh 30.32 in1026.8 mb 0.00 in0.0 mm 0.00 in0.0 mm 0.00 in0.0 mm
06:50 AM 57.1°F13.9°C 44.2°F6.8°C 62% 4.7 mph NNW7.6 kmh NNW 12.0 mph19.3 kmh 30.32 in1026.8 mb 0.00 in0.0 mm 0.00 in0.0 mm 0.00 in0.0 mm
06:45 AM 56.6°F13.7°C 44.1°F6.7°C 63% 4.7 mph NW7.6 kmh NW 13.0 mph20.9 kmh 30.32 in1026.8 mb 0.00 in0.0 mm 0.00 in0.0 mm 0.00 in0.0 mm
06:40 AM 56.6°F13.7°C 44.1°F6.7°C 63% 5.9 mph NW9.5 kmh NW 14.0 mph22.5 kmh 30.32 in1026.8 mb 0.00 in0.0 mm 0.00 in0.0 mm 0.00 in0.0 mm
06:35 AM 56.0°F13.3°C 43.6°F6.4°C 63% 5.9 mph NW9.5 kmh NW 14.0 mph22.5 kmh 30.31 in1026.4 mb 0.00 in0.0 mm 0.00 in0.0 mm 0.00 in0.0 mm
06:30 AM 55.5°F13.1°C 44.3°F6.8°C 66% 4.7 mph NW7.6 kmh NW 14.0 mph22.5 kmh 30.31 in1026.4 mb 0.00 in0.0 mm 0.00 in0.0 mm 0.00 in0.0 mm
06:25 AM 55.3°F12.9°C 44.1°F6.7°C 66% 4.7 mph NW7.6 kmh NW 12.0 mph19.3 kmh 30.31 in1026.4 mb 0.00 in0.0 mm 0.00 in0.0 mm 0.00 in0.0 mm
06:20 AM 55.0°F12.8°C 44.6°F7.0°C 68% 3.5 mph NW5.6 kmh NW 9.0 mph14.5 kmh 30.31 in1026.4 mb 0.00 in0.0 mm 0.00 in0.0 mm 0.00 in0.0 mm
06:15 AM 54.8°F12.7°C 44.4°F6.9°C 68% 2.4 mph NNW3.9 kmh NNW 8.0 mph12.9 kmh 30.31 in1026.4 mb 0.00 in0.0 mm 0.00 in0.0 mm 0.00 in0.0 mm
06:10 AM 54.7°F12.6°C 45.1°F7.3°C 70% 2.4 mph NW3.9 kmh NW 8.0 mph12.9 kmh 30.30 in1026.1 mb 0.00 in0.0 mm 0.00 in0.0 mm 0.00 in0.0 mm
06:05 AM 54.7°F12.6°C 45.1°F7.3°C 70% 1.2 mph NW1.9 kmh NW 6.0 mph9.7 kmh 30.30 in1026.1 mb 0.00 in0.0 mm 0.00 in0.0 mm 0.00 in0.0 mm
06:00 AM 54.3°F12.4°C 45.5°F7.5°C 72% 1.2 mph WNW1.9 kmh WNW 4.0 mph6.4 kmh 30.30 in1026.1 mb 0.00 in0.0 mm 0.00 in0.0 mm 0.00 in0.0 mm
05:55 AM 54.0°F12.2°C 45.2°F7.3°C 72% 1.2 mph WNW1.9 kmh WNW 4.0 mph6.4 kmh 30.30 in1026.1 mb 0.00 in0.0 mm 0.00 in0.0 mm 0.00 in0.0 mm
05:50 AM 53.5°F11.9°C 45.1°F7.3°C 73% 1.2 mph NW1.9 kmh NW 3.0 mph4.8 kmh 30.30 in1026.1 mb 0.00 in0.0 mm 0.00 in0.0 mm 0.00 in0.0 mm
05:45 AM 52.8°F11.6°C 44.7°F7.1°C 74% 1.2 mph N1.9 kmh N 3.0 mph4.8 kmh 30.30 in1026.1 mb 0.00 in0.0 mm 0.00 in0.0 mm 0.00 in0.0 mm
05:40 AM 52.3°F11.3°C 44.6°F7.0°C 75% Calm Calm 2.0 mph3.2 kmh 30.30 in1026.1 mb 0.00 in0.0 mm 0.00 in0.0 mm 0.00 in0.0 mm
05:35 AM 52.1°F11.2°C 44.4°F6.9°C 75% Calm Calm 2.0 mph3.2 kmh 30.29 in1025.7 mb 0.00 in0.0 mm 0.00 in0.0 mm 0.00 in0.0 mm
05:30 AM 51.9°F11.1°C 44.6°F7.0°C 76% Calm Calm 1.0 mph1.6 kmh 30.29 in1025.7 mb 0.00 in0.0 mm 0.00 in0.0 mm 0.00 in0.0 mm
05:25 AM 51.7°F10.9°C 44.4°F6.9°C 76% Calm Calm 2.0 mph3.2 kmh 30.29 in1025.7 mb 0.00 in0.0 mm 0.00 in0.0 mm 0.00 in0.0 mm
05:20 AM 51.7°F10.9°C 44.4°F6.9°C 76% Calm Calm 2.0 mph3.2 kmh 30.29 in1025.7 mb 0.00 in0.0 mm 0.00 in0.0 mm 0.00 in0.0 mm
05:15 AM 51.8°F11.0°C 44.5°F6.9°C 76% Calm Calm 2.0 mph3.2 kmh 30.29 in1025.7 mb 0.00 in0.0 mm 0.00 in0.0 mm 0.00 in0.0 mm
05:10 AM 51.9°F11.1°C 44.2°F6.8°C 75% 1.2 mph N1.9 kmh N 2.0 mph3.2 kmh 30.29 in1025.7 mb 0.00 in0.0 mm 0.00 in0.0 mm 0.00 in0.0 mm
05:05 AM 51.8°F11.0°C 44.5°F6.9°C 76% 1.2 mph N1.9 kmh N 3.0 mph4.8 kmh 30.29 in1025.7 mb 0.00 in0.0 mm 0.00 in0.0 mm 0.00 in0.0 mm
05:00 AM 51.8°F11.0°C 44.1°F6.7°C 75% 1.2 mph NW1.9 kmh NW 3.0 mph4.8 kmh 30.29 in1025.7 mb 0.00 in0.0 mm 0.00 in0.0 mm 0.00 in0.0 mm
04:55 AM 51.7°F10.9°C 44.0°F6.7°C 75% 1.2 mph NW1.9 kmh NW 3.0 mph4.8 kmh 30.28 in1025.4 mb 0.00 in0.0 mm 0.00 in0.0 mm 0.00 in0.0 mm
04:50 AM 51.6°F10.9°C 44.3°F6.8°C 76% 1.2 mph NW1.9 kmh NW 2.0 mph3.2 kmh 30.29 in1025.7 mb 0.00 in0.0 mm 0.00 in0.0 mm 0.00 in0.0 mm
04:45 AM 51.2°F10.7°C 44.2°F6.8°C 77% 1.2 mph WNW1.9 kmh WNW 2.0 mph3.2 kmh 30.28 in1025.4 mb 0.00 in0.0 mm 0.00 in0.0 mm 0.00 in0.0 mm
04:40 AM 50.4°F10.2°C 44.1°F6.7°C 79% 1.2 mph SW1.9 kmh SW 3.0 mph4.8 kmh 30.28 in1025.4 mb 0.00 in0.0 mm 0.00 in0.0 mm 0.00 in0.0 mm
04:35 AM 49.9°F9.9°C 43.6°F6.4°C 79% Calm Calm 3.0 mph4.8 kmh 30.28 in1025.4 mb 0.00 in0.0 mm 0.00 in0.0 mm 0.00 in0.0 mm
04:30 AM 49.4°F9.7°C 43.8°F6.6°C 81% Calm Calm 2.0 mph3.2 kmh 30.28 in1025.4 mb 0.00 in0.0 mm 0.00 in0.0 mm 0.00 in0.0 mm
04:25 AM 49.0°F9.4°C 44.1°F6.7°C 83% Calm Calm -- 30.28 in1025.4 mb 0.00 in0.0 mm 0.00 in0.0 mm 0.00 in0.0 mm
04:20 AM 48.8°F9.3°C 43.5°F6.4°C 82% Calm Calm -- 30.28 in1025.4 mb 0.00 in0.0 mm 0.00 in0.0 mm 0.00 in0.0 mm
04:15 AM 48.7°F9.3°C 43.5°F6.4°C 82% Calm Calm -- 30.27 in1025.1 mb 0.00 in0.0 mm 0.00 in0.0 mm 0.00 in0.0 mm
04:10 AM 48.8°F9.3°C 43.5°F6.4°C 82% Calm Calm -- 30.27 in1025.1 mb 0.00 in0.0 mm 0.00 in0.0 mm 0.00 in0.0 mm
04:05 AM 48.8°F9.3°C 43.2°F6.2°C 81% Calm Calm -- 30.27 in1025.1 mb 0.00 in0.0 mm 0.00 in0.0 mm 0.00 in0.0 mm
04:00 AM 49.1°F9.5°C 43.2°F6.2°C 80% Calm Calm -- 30.27 in1025.1 mb 0.00 in0.0 mm 0.00 in0.0 mm 0.00 in0.0 mm
03:55 AM 49.4°F9.7°C 43.5°F6.4°C 80% Calm Calm -- 30.26 in1024.7 mb 0.00 in0.0 mm 0.00 in0.0 mm 0.00 in0.0 mm
03:50 AM 49.6°F9.8°C 43.7°F6.5°C 80% Calm Calm -- 30.26 in1024.7 mb 0.00 in0.0 mm 0.00 in0.0 mm 0.00 in0.0 mm
03:45 AM 49.9°F9.9°C 43.6°F6.4°C 79% Calm Calm 1.0 mph1.6 kmh 30.26 in1024.7 mb 0.00 in0.0 mm 0.00 in0.0 mm 0.00 in0.0 mm
03:40 AM 50.1°F10.1°C 43.5°F6.4°C 78% Calm Calm 1.0 mph1.6 kmh 30.26 in1024.7 mb 0.00 in0.0 mm 0.00 in0.0 mm 0.00 in0.0 mm
03:35 AM 50.3°F10.2°C 43.7°F6.5°C 78% Calm Calm 1.0 mph1.6 kmh 30.25 in1024.4 mb 0.00 in0.0 mm 0.00 in0.0 mm 0.00 in0.0 mm
03:30 AM 50.4°F10.2°C 43.5°F6.4°C 77% 1.2 mph SW1.9 kmh SW 3.0 mph4.8 kmh 30.25 in1024.4 mb 0.00 in0.0 mm 0.00 in0.0 mm 0.00 in0.0 mm
03:25 AM 50.4°F10.2°C 43.5°F6.4°C 77% 1.2 mph SW1.9 kmh SW 3.0 mph4.8 kmh 30.25 in1024.4 mb 0.00 in0.0 mm 0.00 in0.0 mm 0.00 in0.0 mm
03:20 AM 50.5°F10.3°C 43.6°F6.4°C 77% Calm Calm 2.0 mph3.2 kmh 30.25 in1024.4 mb 0.00 in0.0 mm 0.00 in0.0 mm 0.00 in0.0 mm
03:15 AM 50.6°F10.3°C 43.7°F6.5°C 77% Calm Calm 2.0 mph3.2 kmh 30.25 in1024.4 mb 0.00 in0.0 mm 0.00 in0.0 mm 0.00 in0.0 mm
03:10 AM 50.7°F10.4°C 43.8°F6.6°C 77% Calm Calm 2.0 mph3.2 kmh 30.25 in1024.4 mb 0.00 in0.0 mm 0.00 in0.0 mm 0.00 in0.0 mm
03:05 AM 50.7°F10.4°C 43.8°F6.6°C 77% 1.2 mph WNW1.9 kmh WNW 7.0 mph11.3 kmh 30.25 in1024.4 mb 0.00 in0.0 mm 0.00 in0.0 mm 0.00 in0.0 mm
03:00 AM 50.8°F10.4°C 43.8°F6.6°C 77% 2.4 mph NW3.9 kmh NW 7.0 mph11.3 kmh 30.25 in1024.4 mb 0.00 in0.0 mm 0.00 in0.0 mm 0.00 in0.0 mm
02:55 AM 50.7°F10.4°C 43.8°F6.6°C 77% 2.4 mph NW3.9 kmh NW 7.0 mph11.3 kmh 30.26 in1024.7 mb 0.00 in0.0 mm 0.00 in0.0 mm 0.00 in0.0 mm
02:50 AM 50.5°F10.3°C 44.2°F6.8°C 79% 1.2 mph WNW1.9 kmh WNW 4.0 mph6.4 kmh 30.25 in1024.4 mb 0.00 in0.0 mm 0.00 in0.0 mm 0.00 in0.0 mm
02:45 AM 50.5°F10.3°C 44.2°F6.8°C 79% Calm Calm 2.0 mph3.2 kmh 30.25 in1024.4 mb 0.00 in0.0 mm 0.00 in0.0 mm 0.00 in0.0 mm
02:40 AM 50.6°F10.3°C 44.3°F6.8°C 79% Calm Calm 2.0 mph3.2 kmh 30.25 in1024.4 mb 0.00 in0.0 mm 0.00 in0.0 mm 0.00 in0.0 mm
02:35 AM 50.6°F10.3°C 44.3°F6.8°C 79% Calm Calm 1.0 mph1.6 kmh 30.25 in1024.4 mb 0.00 in0.0 mm 0.00 in0.0 mm 0.00 in0.0 mm
02:30 AM 50.7°F10.4°C 44.4°F6.9°C 79% 1.2 mph WNW1.9 kmh WNW 3.0 mph4.8 kmh 30.25 in1024.4 mb 0.00 in0.0 mm 0.00 in0.0 mm 0.00 in0.0 mm
02:25 AM 50.8°F10.4°C 44.5°F6.9°C 79% 1.2 mph WNW1.9 kmh WNW 3.0 mph4.8 kmh 30.25 in1024.4 mb 0.00 in0.0 mm 0.00 in0.0 mm 0.00 in0.0 mm
02:20 AM 51.0°F10.6°C 44.7°F7.1°C 79% Calm Calm 2.0 mph3.2 kmh 30.25 in1024.4 mb 0.00 in0.0 mm 0.00 in0.0 mm 0.00 in0.0 mm
02:15 AM 51.1°F10.6°C 44.8°F7.1°C 79% 1.2 mph WNW1.9 kmh WNW 2.0 mph3.2 kmh 30.25 in1024.4 mb 0.00 in0.0 mm 0.00 in0.0 mm 0.00 in0.0 mm
02:10 AM 51.4°F10.8°C 45.1°F7.3°C 79% 1.2 mph WNW1.9 kmh WNW 2.0 mph3.2 kmh 30.25 in1024.4 mb 0.00 in0.0 mm 0.00 in0.0 mm 0.00 in0.0 mm
02:05 AM 51.5°F10.8°C 44.9°F7.2°C 78% 1.2 mph WNW1.9 kmh WNW 3.0 mph4.8 kmh 30.25 in1024.4 mb 0.00 in0.0 mm 0.00 in0.0 mm 0.00 in0.0 mm
02:00 AM 51.7°F10.9°C 45.1°F7.3°C 78% 1.2 mph WNW1.9 kmh WNW 3.0 mph4.8 kmh 30.25 in1024.4 mb 0.00 in0.0 mm 0.00 in0.0 mm 0.00 in0.0 mm
01:55 AM 52.0°F11.1°C 45.0°F7.2°C 77% 1.2 mph NW1.9 kmh NW 3.0 mph4.8 kmh 30.25 in1024.4 mb 0.00 in0.0 mm 0.00 in0.0 mm 0.00 in0.0 mm
01:50 AM 52.1°F11.2°C 45.1°F7.3°C 77% 1.2 mph NW1.9 kmh NW 3.0 mph4.8 kmh 30.24 in1024.0 mb 0.00 in0.0 mm 0.00 in0.0 mm 0.00 in0.0 mm
01:45 AM 52.3°F11.3°C 45.3°F7.4°C 77% 1.2 mph WNW1.9 kmh WNW 6.0 mph9.7 kmh 30.25 in1024.4 mb 0.00 in0.0 mm 0.00 in0.0 mm 0.00 in0.0 mm
01:40 AM 52.5°F11.4°C 45.5°F7.5°C 77% 2.4 mph WNW3.9 kmh WNW 6.0 mph9.7 kmh 30.25 in1024.4 mb 0.00 in0.0 mm 0.00 in0.0 mm 0.00 in0.0 mm
01:35 AM 52.6°F11.4°C 45.6°F7.6°C 77% 2.4 mph NW3.9 kmh NW 4.0 mph6.4 kmh 30.25 in1024.4 mb 0.00 in0.0 mm 0.00 in0.0 mm 0.00 in0.0 mm
01:30 AM 52.7°F11.5°C 45.7°F7.6°C 77% 1.2 mph WNW1.9 kmh WNW 4.0 mph6.4 kmh 30.24 in1024.0 mb 0.00 in0.0 mm 0.00 in0.0 mm 0.00 in0.0 mm
01:25 AM 52.8°F11.6°C 45.8°F7.7°C 77% 1.2 mph WNW1.9 kmh WNW 7.0 mph11.3 kmh 30.24 in1024.0 mb 0.00 in0.0 mm 0.00 in0.0 mm 0.00 in0.0 mm
01:20 AM 52.8°F11.6°C 46.1°F7.8°C 78% 2.4 mph WNW3.9 kmh WNW 7.0 mph11.3 kmh 30.24 in1024.0 mb 0.00 in0.0 mm 0.00 in0.0 mm 0.00 in0.0 mm
01:15 AM 52.9°F11.6°C 46.2°F7.9°C 78% 1.2 mph WNW1.9 kmh WNW 4.0 mph6.4 kmh 30.24 in1024.0 mb 0.00 in0.0 mm 0.00 in0.0 mm 0.00 in0.0 mm
01:10 AM 53.0°F11.7°C 46.7°F8.2°C 79% 1.2 mph WNW1.9 kmh WNW 4.0 mph6.4 kmh 30.24 in1024.0 mb 0.00 in0.0 mm 0.00 in0.0 mm 0.00 in0.0 mm
01:05 AM 53.1°F11.7°C 46.4°F8.0°C 78% 1.2 mph WNW1.9 kmh WNW 3.0 mph4.8 kmh 30.23 in1023.7 mb 0.00 in0.0 mm 0.00 in0.0 mm 0.00 in0.0 mm
01:00 AM 53.2°F11.8°C 46.5°F8.1°C 78% 2.4 mph WNW3.9 kmh WNW 4.0 mph6.4 kmh 30.23 in1023.7 mb 0.00 in0.0 mm 0.00 in0.0 mm 0.00 in0.0 mm
12:55 AM 53.4°F11.9°C 46.7°F8.2°C 78% 3.5 mph WNW5.6 kmh WNW 5.0 mph8.0 kmh 30.23 in1023.7 mb 0.00 in0.0 mm 0.00 in0.0 mm 0.00 in0.0 mm
12:50 AM 53.3°F11.8°C 46.6°F8.1°C 78% 3.5 mph WNW5.6 kmh WNW 7.0 mph11.3 kmh 30.23 in1023.7 mb 0.00 in0.0 mm 0.00 in0.0 mm 0.00 in0.0 mm
12:45 AM 53.3°F11.8°C 46.6°F8.1°C 78% 3.5 mph NW5.6 kmh NW 8.0 mph12.9 kmh 30.23 in1023.7 mb 0.00 in0.0 mm 0.00 in0.0 mm 0.00 in0.0 mm
12:40 AM 53.3°F11.8°C 46.6°F8.1°C 78% 3.5 mph WNW5.6 kmh WNW 10.0 mph16.1 kmh 30.23 in1023.7 mb 0.00 in0.0 mm 0.00 in0.0 mm 0.00 in0.0 mm
12:35 AM 53.2°F11.8°C 46.5°F8.1°C 78% 3.5 mph WNW5.6 kmh WNW 10.0 mph16.1 kmh 30.23 in1023.7 mb 0.00 in0.0 mm 0.00 in0.0 mm 0.00 in0.0 mm
12:30 AM 53.0°F11.7°C 46.3°F7.9°C 78% 3.5 mph WNW5.6 kmh WNW 8.0 mph12.9 kmh 30.23 in1023.7 mb 0.00 in0.0 mm 0.00 in0.0 mm 0.00 in0.0 mm
12:25 AM 53.0°F11.7°C 46.3°F7.9°C 78% 3.5 mph WNW5.6 kmh WNW 6.0 mph9.7 kmh 30.23 in1023.7 mb 0.00 in0.0 mm 0.00 in0.0 mm 0.00 in0.0 mm
12:20 AM 53.1°F11.7°C 46.4°F8.0°C 78% 2.4 mph WNW3.9 kmh WNW 5.0 mph8.0 kmh 30.23 in1023.7 mb 0.00 in0.0 mm 0.00 in0.0 mm 0.00 in0.0 mm
12:15 AM 53.2°F11.8°C 46.2°F7.9°C 77% 2.4 mph WNW3.9 kmh WNW 6.0 mph9.7 kmh 30.23 in1023.7 mb 0.00 in0.0 mm 0.00 in0.0 mm 0.00 in0.0 mm
12:10 AM 53.2°F11.8°C 46.2°F7.9°C 77% 2.4 mph WNW3.9 kmh WNW 6.0 mph9.7 kmh 30.23 in1023.7 mb 0.00 in0.0 mm 0.00 in0.0 mm 0.00 in0.0 mm
12:05 AM 53.2°F11.8°C 46.2°F7.9°C 77% 1.2 mph WNW1.9 kmh WNW 3.0 mph4.8 kmh 30.23 in1023.7 mb 0.00 in0.0 mm 0.00 in0.0 mm 0.00 in0.0 mm
12:00 AM 53.2°F11.8°C 46.2°F7.9°C 77% 1.2 mph WNW1.9 kmh WNW 6.0 mph9.7 kmh 30.22 in1023.4 mb 0.00 in0.0 mm 0.00 in0.0 mm 0.00 in0.0 mm